Terminal Aerodrome Forecast
Issued by NWS Tuscon, AZ

Home | Current Version | Previous Version | Text Only | Print | Product List | Glossary On
Versions: 1 2 3 4 5 6 7 8 9 10 11 12 13 14
000
FTUS45 KTWC 251740
TAFDUG
TAF
KDUG 251740Z 2518/2618 17008G18KT P6SM SCT250
     FM252000 24020G30KT P6SM FEW060 SCT200
     FM260300 22011G18KT P6SM SCT050 BKN200
     FM261000 17012KT P6SM VCSH FEW030 BKN050=

USA.gov is the U.S. government's official web portal to all federal, state and local government web resources and services.